sensor_id;sensor_type;location;lat;lon;timestamp;P1;durP1;ratioP1;P2;durP2;ratioP2
2624;SDS011;1322;53.256;10.386;2024-03-07T00:00:33;42.43;;;24.00;;
2624;SDS011;1322;53.256;10.386;2024-03-07T00:02:59;39.10;;;22.93;;
2624;SDS011;1322;53.256;10.386;2024-03-07T00:05:25;38.63;;;21.77;;
2624;SDS011;1322;53.256;10.386;2024-03-07T00:07:51;41.17;;;24.07;;
2624;SDS011;1322;53.256;10.386;2024-03-07T00:10:17;43.43;;;23.77;;
2624;SDS011;1322;53.256;10.386;2024-03-07T00:12:43;50.93;;;23.90;;
2624;SDS011;1322;53.256;10.386;2024-03-07T00:15:10;47.97;;;24.47;;
2624;SDS011;1322;53.256;10.386;2024-03-07T00:17:37;44.20;;;21.83;;
2624;SDS011;1322;53.256;10.386;2024-03-07T00:20:03;50.20;;;24.20;;
2624;SDS011;1322;53.256;10.386;2024-03-07T00:22:33;44.83;;;24.77;;
2624;SDS011;1322;53.256;10.386;2024-03-07T00:25:00;44.23;;;26.03;;
2624;SDS011;1322;53.256;10.386;2024-03-07T00:27:26;42.90;;;23.53;;
2624;SDS011;1322;53.256;10.386;2024-03-07T00:29:52;47.97;;;25.50;;
2624;SDS011;1322;53.256;10.386;2024-03-07T00:32:21;54.00;;;25.80;;
2624;SDS011;1322;53.256;10.386;2024-03-07T00:34:48;46.00;;;25.07;;
2624;SDS011;1322;53.256;10.386;2024-03-07T00:37:14;47.90;;;25.13;;
2624;SDS011;1322;53.256;10.386;2024-03-07T00:39:40;47.70;;;26.23;;
2624;SDS011;1322;53.256;10.386;2024-03-07T00:42:06;50.83;;;26.70;;
2624;SDS011;1322;53.256;10.386;2024-03-07T00:44:32;45.73;;;24.53;;
2624;SDS011;1322;53.256;10.386;2024-03-07T00:46:59;46.07;;;26.47;;
2624;SDS011;1322;53.256;10.386;2024-03-07T00:49:27;53.40;;;25.10;;
2624;SDS011;1322;53.256;10.386;2024-03-07T00:51:53;46.20;;;23.90;;
2624;SDS011;1322;53.256;10.386;2024-03-07T00:54:19;46.93;;;25.13;;
2624;SDS011;1322;53.256;10.386;2024-03-07T00:56:45;43.50;;;24.17;;
2624;SDS011;1322;53.256;10.386;2024-03-07T00:59:14;44.43;;;24.53;;
2624;SDS011;1322;53.256;10.386;2024-03-07T01:01:40;53.23;;;24.87;;
2624;SDS011;1322;53.256;10.386;2024-03-07T01:04:06;46.03;;;25.77;;
2624;SDS011;1322;53.256;10.386;2024-03-07T01:06:33;44.97;;;26.07;;
2624;SDS011;1322;53.256;10.386;2024-03-07T01:08:59;47.03;;;24.43;;
2624;SDS011;1322;53.256;10.386;2024-03-07T01:11:25;42.80;;;22.30;;
2624;SDS011;1322;53.256;10.386;2024-03-07T01:13:50;48.40;;;24.50;;
2624;SDS011;1322;53.256;10.386;2024-03-07T01:16:17;45.53;;;25.30;;
2624;SDS011;1322;53.256;10.386;2024-03-07T01:18:42;43.80;;;22.80;;
2624;SDS011;1322;53.256;10.386;2024-03-07T01:21:08;42.30;;;24.50;;
2624;SDS011;1322;53.256;10.386;2024-03-07T01:23:34;37.50;;;23.30;;
2624;SDS011;1322;53.256;10.386;2024-03-07T01:25:59;50.57;;;24.87;;
2624;SDS011;1322;53.256;10.386;2024-03-07T01:28:26;40.80;;;22.70;;
2624;SDS011;1322;53.256;10.386;2024-03-07T01:30:55;40.10;;;21.70;;
2624;SDS011;1322;53.256;10.386;2024-03-07T01:33:21;38.10;;;22.50;;
2624;SDS011;1322;53.256;10.386;2024-03-07T01:35:47;41.60;;;22.40;;
2624;SDS011;1322;53.256;10.386;2024-03-07T01:38:13;35.20;;;22.60;;
2624;SDS011;1322;53.256;10.386;2024-03-07T01:40:40;49.13;;;24.10;;
2624;SDS011;1322;53.256;10.386;2024-03-07T01:43:07;35.90;;;20.80;;
2624;SDS011;1322;53.256;10.386;2024-03-07T01:45:33;35.83;;;21.10;;
2624;SDS011;1322;53.256;10.386;2024-03-07T01:48:02;44.13;;;23.63;;
2624;SDS011;1322;53.256;10.386;2024-03-07T01:50:33;37.37;;;21.90;;
2624;SDS011;1322;53.256;10.386;2024-03-07T01:53:03;39.03;;;21.90;;
2624;SDS011;1322;53.256;10.386;2024-03-07T01:55:34;37.87;;;23.30;;
2624;SDS011;1322;53.256;10.386;2024-03-07T01:58:00;33.30;;;23.33;;
2624;SDS011;1322;53.256;10.386;2024-03-07T02:00:27;36.67;;;20.67;;
2624;SDS011;1322;53.256;10.386;2024-03-07T02:02:53;43.13;;;24.33;;
2624;SDS011;1322;53.256;10.386;2024-03-07T02:05:19;40.63;;;21.37;;
2624;SDS011;1322;53.256;10.386;2024-03-07T02:07:46;37.93;;;20.90;;
2624;SDS011;1322;53.256;10.386;2024-03-07T02:10:12;35.47;;;21.07;;
2624;SDS011;1322;53.256;10.386;2024-03-07T02:12:38;33.53;;;20.43;;
2624;SDS011;1322;53.256;10.386;2024-03-07T02:15:04;38.83;;;21.07;;
2624;SDS011;1322;53.256;10.386;2024-03-07T02:17:30;37.80;;;21.93;;
2624;SDS011;1322;53.256;10.386;2024-03-07T02:19:57;42.63;;;23.20;;
2624;SDS011;1322;53.256;10.386;2024-03-07T02:22:23;37.97;;;21.87;;
2624;SDS011;1322;53.256;10.386;2024-03-07T02:24:51;35.07;;;22.07;;
2624;SDS011;1322;53.256;10.386;2024-03-07T02:27:17;36.77;;;22.07;;
2624;SDS011;1322;53.256;10.386;2024-03-07T02:29:42;39.23;;;22.57;;
2624;SDS011;1322;53.256;10.386;2024-03-07T02:32:08;32.90;;;20.73;;
2624;SDS011;1322;53.256;10.386;2024-03-07T02:34:35;37.03;;;22.20;;
2624;SDS011;1322;53.256;10.386;2024-03-07T02:37:00;37.77;;;21.70;;
2624;SDS011;1322;53.256;10.386;2024-03-07T02:39:27;32.13;;;20.87;;
2624;SDS011;1322;53.256;10.386;2024-03-07T02:41:53;32.97;;;20.77;;
2624;SDS011;1322;53.256;10.386;2024-03-07T02:44:18;38.23;;;21.60;;
2624;SDS011;1322;53.256;10.386;2024-03-07T02:46:44;37.10;;;21.77;;
2624;SDS011;1322;53.256;10.386;2024-03-07T02:49:12;42.60;;;23.37;;
2624;SDS011;1322;53.256;10.386;2024-03-07T02:51:38;38.70;;;19.60;;
2624;SDS011;1322;53.256;10.386;2024-03-07T02:54:03;35.90;;;21.30;;
2624;SDS011;1322;53.256;10.386;2024-03-07T02:56:30;42.43;;;21.70;;
2624;SDS011;1322;53.256;10.386;2024-03-07T02:58:56;42.87;;;21.80;;
2624;SDS011;1322;53.256;10.386;2024-03-07T03:01:22;39.10;;;21.00;;
2624;SDS011;1322;53.256;10.386;2024-03-07T03:03:47;37.43;;;20.10;;
2624;SDS011;1322;53.256;10.386;2024-03-07T03:06:13;41.87;;;22.17;;
2624;SDS011;1322;53.256;10.386;2024-03-07T03:08:39;41.90;;;22.47;;
2624;SDS011;1322;53.256;10.386;2024-03-07T03:11:04;44.13;;;22.33;;
2624;SDS011;1322;53.256;10.386;2024-03-07T03:13:30;35.83;;;20.87;;
2624;SDS011;1322;53.256;10.386;2024-03-07T03:15:56;32.00;;;20.07;;
2624;SDS011;1322;53.256;10.386;2024-03-07T03:18:22;36.63;;;20.60;;
2624;SDS011;1322;53.256;10.386;2024-03-07T03:20:49;40.17;;;21.87;;
2624;SDS011;1322;53.256;10.386;2024-03-07T03:23:14;49.60;;;21.33;;
2624;SDS011;1322;53.256;10.386;2024-03-07T03:25:40;37.80;;;22.23;;
2624;SDS011;1322;53.256;10.386;2024-03-07T03:28:07;36.80;;;20.63;;
2624;SDS011;1322;53.256;10.386;2024-03-07T03:30:39;40.87;;;21.97;;
2624;SDS011;1322;53.256;10.386;2024-03-07T03:33:06;38.73;;;20.80;;
2624;SDS011;1322;53.256;10.386;2024-03-07T03:35:36;39.60;;;20.50;;
2624;SDS011;1322;53.256;10.386;2024-03-07T03:38:02;41.50;;;20.53;;
2624;SDS011;1322;53.256;10.386;2024-03-07T03:40:28;40.93;;;20.30;;
2624;SDS011;1322;53.256;10.386;2024-03-07T03:42:53;37.67;;;20.50;;
2624;SDS011;1322;53.256;10.386;2024-03-07T03:45:19;51.23;;;20.20;;
2624;SDS011;1322;53.256;10.386;2024-03-07T03:47:45;38.87;;;21.20;;
2624;SDS011;1322;53.256;10.386;2024-03-07T03:50:11;44.43;;;19.10;;
2624;SDS011;1322;53.256;10.386;2024-03-07T03:52:38;33.20;;;19.20;;
2624;SDS011;1322;53.256;10.386;2024-03-07T03:55:07;37.63;;;19.63;;
2624;SDS011;1322;53.256;10.386;2024-03-07T03:57:40;43.60;;;21.50;;
2624;SDS011;1322;53.256;10.386;2024-03-07T04:00:08;37.03;;;19.30;;
2624;SDS011;1322;53.256;10.386;2024-03-07T04:02:38;34.67;;;17.53;;
2624;SDS011;1322;53.256;10.386;2024-03-07T04:05:07;38.10;;;16.40;;
2624;SDS011;1322;53.256;10.386;2024-03-07T04:07:34;32.77;;;16.73;;
2624;SDS011;1322;53.256;10.386;2024-03-07T04:10:00;31.57;;;17.43;;
2624;SDS011;1322;53.256;10.386;2024-03-07T04:12:28;32.17;;;16.97;;
2624;SDS011;1322;53.256;10.386;2024-03-07T04:14:54;29.20;;;16.97;;
2624;SDS011;1322;53.256;10.386;2024-03-07T04:17:20;28.50;;;17.17;;
2624;SDS011;1322;53.256;10.386;2024-03-07T04:19:46;22.20;;;13.77;;
2624;SDS011;1322;53.256;10.386;2024-03-07T04:22:12;26.27;;;15.60;;
2624;SDS011;1322;53.256;10.386;2024-03-07T04:24:38;25.50;;;15.57;;
2624;SDS011;1322;53.256;10.386;2024-03-07T04:27:06;24.60;;;15.43;;
2624;SDS011;1322;53.256;10.386;2024-03-07T04:29:35;25.43;;;15.03;;
2624;SDS011;1322;53.256;10.386;2024-03-07T04:32:01;23.73;;;14.20;;
2624;SDS011;1322;53.256;10.386;2024-03-07T04:34:28;20.17;;;13.73;;
2624;SDS011;1322;53.256;10.386;2024-03-07T04:37:00;29.63;;;14.70;;
2624;SDS011;1322;53.256;10.386;2024-03-07T04:39:26;20.33;;;13.50;;
2624;SDS011;1322;53.256;10.386;2024-03-07T04:41:58;24.17;;;13.97;;
2624;SDS011;1322;53.256;10.386;2024-03-07T04:44:28;27.67;;;14.70;;
2624;SDS011;1322;53.256;10.386;2024-03-07T04:46:54;23.60;;;14.30;;
2624;SDS011;1322;53.256;10.386;2024-03-07T04:49:24;19.60;;;12.87;;
2624;SDS011;1322;53.256;10.386;2024-03-07T04:51:53;31.47;;;13.53;;
2624;SDS011;1322;53.256;10.386;2024-03-07T04:54:20;24.03;;;15.30;;
2624;SDS011;1322;53.256;10.386;2024-03-07T04:56:47;25.33;;;14.33;;
2624;SDS011;1322;53.256;10.386;2024-03-07T04:59:13;25.53;;;14.57;;
2624;SDS011;1322;53.256;10.386;2024-03-07T05:01:40;23.03;;;13.80;;
2624;SDS011;1322;53.256;10.386;2024-03-07T05:04:06;22.40;;;13.03;;
2624;SDS011;1322;53.256;10.386;2024-03-07T05:06:32;26.13;;;14.20;;
2624;SDS011;1322;53.256;10.386;2024-03-07T05:09:01;18.57;;;12.90;;
2624;SDS011;1322;53.256;10.386;2024-03-07T05:11:30;24.67;;;14.47;;
2624;SDS011;1322;53.256;10.386;2024-03-07T05:13:58;22.93;;;14.87;;
2624;SDS011;1322;53.256;10.386;2024-03-07T05:16:24;19.07;;;13.10;;
2624;SDS011;1322;53.256;10.386;2024-03-07T05:18:50;22.20;;;14.10;;
2624;SDS011;1322;53.256;10.386;2024-03-07T05:21:16;22.83;;;13.70;;
2624;SDS011;1322;53.256;10.386;2024-03-07T05:23:58;21.10;;;13.50;;
2624;SDS011;1322;53.256;10.386;2024-03-07T05:26:24;27.33;;;14.97;;
2624;SDS011;1322;53.256;10.386;2024-03-07T05:28:51;23.73;;;13.70;;
2624;SDS011;1322;53.256;10.386;2024-03-07T05:31:19;21.13;;;13.50;;
2624;SDS011;1322;53.256;10.386;2024-03-07T05:33:45;18.50;;;13.40;;
2624;SDS011;1322;53.256;10.386;2024-03-07T05:36:11;22.03;;;13.83;;
2624;SDS011;1322;53.256;10.386;2024-03-07T05:38:43;19.70;;;12.80;;
2624;SDS011;1322;53.256;10.386;2024-03-07T05:41:12;27.23;;;15.57;;
2624;SDS011;1322;53.256;10.386;2024-03-07T05:43:41;21.87;;;13.30;;
2624;SDS011;1322;53.256;10.386;2024-03-07T05:46:06;29.57;;;16.50;;
2624;SDS011;1322;53.256;10.386;2024-03-07T05:48:35;21.27;;;14.00;;
2624;SDS011;1322;53.256;10.386;2024-03-07T05:51:00;21.23;;;13.80;;
2624;SDS011;1322;53.256;10.386;2024-03-07T05:53:26;22.00;;;13.30;;
2624;SDS011;1322;53.256;10.386;2024-03-07T05:55:52;24.47;;;13.87;;
2624;SDS011;1322;53.256;10.386;2024-03-07T05:58:17;23.23;;;12.70;;
2624;SDS011;1322;53.256;10.386;2024-03-07T06:00:44;24.13;;;14.83;;
2624;SDS011;1322;53.256;10.386;2024-03-07T06:03:17;21.33;;;13.90;;
2624;SDS011;1322;53.256;10.386;2024-03-07T06:05:45;18.80;;;12.97;;
2624;SDS011;1322;53.256;10.386;2024-03-07T06:08:13;19.20;;;13.77;;
2624;SDS011;1322;53.256;10.386;2024-03-07T06:10:43;19.97;;;12.80;;
2624;SDS011;1322;53.256;10.386;2024-03-07T06:13:10;29.80;;;15.10;;
2624;SDS011;1322;53.256;10.386;2024-03-07T06:15:37;24.07;;;15.07;;
2624;SDS011;1322;53.256;10.386;2024-03-07T06:18:04;23.63;;;15.73;;
2624;SDS011;1322;53.256;10.386;2024-03-07T06:20:30;19.53;;;12.50;;
2624;SDS011;1322;53.256;10.386;2024-03-07T06:22:55;22.93;;;14.83;;
2624;SDS011;1322;53.256;10.386;2024-03-07T06:25:22;24.63;;;14.77;;
2624;SDS011;1322;53.256;10.386;2024-03-07T06:28:02;22.53;;;13.37;;
2624;SDS011;1322;53.256;10.386;2024-03-07T06:30:37;25.47;;;13.37;;
2624;SDS011;1322;53.256;10.386;2024-03-07T06:33:04;25.63;;;15.13;;
2624;SDS011;1322;53.256;10.386;2024-03-07T06:35:31;21.40;;;13.07;;
2624;SDS011;1322;53.256;10.386;2024-03-07T06:37:57;19.00;;;14.07;;
2624;SDS011;1322;53.256;10.386;2024-03-07T06:40:23;23.97;;;14.57;;
2624;SDS011;1322;53.256;10.386;2024-03-07T06:42:50;23.50;;;13.43;;
2624;SDS011;1322;53.256;10.386;2024-03-07T06:45:17;20.57;;;12.87;;
2624;SDS011;1322;53.256;10.386;2024-03-07T06:47:43;23.60;;;13.10;;
2624;SDS011;1322;53.256;10.386;2024-03-07T06:50:09;22.33;;;13.63;;
2624;SDS011;1322;53.256;10.386;2024-03-07T06:52:39;25.97;;;13.97;;
2624;SDS011;1322;53.256;10.386;2024-03-07T06:55:05;25.00;;;12.70;;
2624;SDS011;1322;53.256;10.386;2024-03-07T06:57:33;19.53;;;12.87;;
2624;SDS011;1322;53.256;10.386;2024-03-07T07:00:01;19.17;;;12.90;;
2624;SDS011;1322;53.256;10.386;2024-03-07T07:02:36;17.57;;;12.90;;
2624;SDS011;1322;53.256;10.386;2024-03-07T07:05:03;21.30;;;14.40;;
2624;SDS011;1322;53.256;10.386;2024-03-07T07:07:32;21.57;;;13.90;;
2624;SDS011;1322;53.256;10.386;2024-03-07T07:10:00;17.87;;;12.57;;
2624;SDS011;1322;53.256;10.386;2024-03-07T07:12:26;15.60;;;11.40;;
2624;SDS011;1322;53.256;10.386;2024-03-07T07:14:53;22.80;;;11.70;;
2624;SDS011;1322;53.256;10.386;2024-03-07T07:17:19;27.83;;;11.90;;
2624;SDS011;1322;53.256;10.386;2024-03-07T07:19:45;30.10;;;13.80;;
2624;SDS011;1322;53.256;10.386;2024-03-07T07:22:10;19.87;;;13.40;;
2624;SDS011;1322;53.256;10.386;2024-03-07T07:24:37;17.30;;;12.60;;
2624;SDS011;1322;53.256;10.386;2024-03-07T07:27:03;14.77;;;10.87;;
2624;SDS011;1322;53.256;10.386;2024-03-07T07:29:29;18.50;;;13.07;;
2624;SDS011;1322;53.256;10.386;2024-03-07T07:31:54;20.83;;;12.90;;
2624;SDS011;1322;53.256;10.386;2024-03-07T07:34:21;15.03;;;11.07;;
2624;SDS011;1322;53.256;10.386;2024-03-07T07:36:46;20.07;;;13.37;;
2624;SDS011;1322;53.256;10.386;2024-03-07T07:39:12;17.43;;;12.43;;
2624;SDS011;1322;53.256;10.386;2024-03-07T07:41:42;19.80;;;12.60;;
2624;SDS011;1322;53.256;10.386;2024-03-07T07:44:08;19.97;;;13.00;;
2624;SDS011;1322;53.256;10.386;2024-03-07T07:46:34;21.80;;;13.20;;
2624;SDS011;1322;53.256;10.386;2024-03-07T07:49:00;23.13;;;12.67;;
2624;SDS011;1322;53.256;10.386;2024-03-07T07:51:27;17.70;;;12.10;;
2624;SDS011;1322;53.256;10.386;2024-03-07T07:53:53;16.83;;;10.23;;
2624;SDS011;1322;53.256;10.386;2024-03-07T07:56:21;17.53;;;11.80;;
2624;SDS011;1322;53.256;10.386;2024-03-07T07:58:47;21.23;;;11.20;;
2624;SDS011;1322;53.256;10.386;2024-03-07T08:01:14;16.93;;;11.30;;
2624;SDS011;1322;53.256;10.386;2024-03-07T08:03:42;22.30;;;14.03;;
2624;SDS011;1322;53.256;10.386;2024-03-07T08:06:11;23.50;;;14.60;;
2624;SDS011;1322;53.256;10.386;2024-03-07T08:08:36;20.57;;;12.50;;
2624;SDS011;1322;53.256;10.386;2024-03-07T08:11:02;18.07;;;11.80;;
2624;SDS011;1322;53.256;10.386;2024-03-07T08:13:28;17.43;;;13.00;;
2624;SDS011;1322;53.256;10.386;2024-03-07T08:15:54;19.10;;;12.53;;
2624;SDS011;1322;53.256;10.386;2024-03-07T08:18:20;18.30;;;12.47;;
2624;SDS011;1322;53.256;10.386;2024-03-07T08:20:46;21.33;;;11.87;;
2624;SDS011;1322;53.256;10.386;2024-03-07T08:23:12;20.23;;;11.90;;
2624;SDS011;1322;53.256;10.386;2024-03-07T08:25:40;18.90;;;13.00;;
2624;SDS011;1322;53.256;10.386;2024-03-07T08:28:06;18.03;;;11.47;;
2624;SDS011;1322;53.256;10.386;2024-03-07T08:30:32;15.30;;;13.03;;
2624;SDS011;1322;53.256;10.386;2024-03-07T08:32:58;18.93;;;13.00;;
2624;SDS011;1322;53.256;10.386;2024-03-07T08:35:27;15.63;;;11.00;;
2624;SDS011;1322;53.256;10.386;2024-03-07T08:37:54;18.50;;;12.10;;
2624;SDS011;1322;53.256;10.386;2024-03-07T08:40:24;19.03;;;11.73;;
2624;SDS011;1322;53.256;10.386;2024-03-07T08:42:51;27.07;;;14.60;;
2624;SDS011;1322;53.256;10.386;2024-03-07T08:45:21;18.50;;;11.10;;
2624;SDS011;1322;53.256;10.386;2024-03-07T08:47:47;26.57;;;14.80;;
2624;SDS011;1322;53.256;10.386;2024-03-07T08:50:14;16.87;;;12.17;;
2624;SDS011;1322;53.256;10.386;2024-03-07T08:52:42;19.07;;;11.50;;
2624;SDS011;1322;53.256;10.386;2024-03-07T08:55:19;18.23;;;11.70;;
2624;SDS011;1322;53.256;10.386;2024-03-07T08:57:46;17.30;;;11.70;;
2624;SDS011;1322;53.256;10.386;2024-03-07T09:00:14;25.40;;;12.37;;
2624;SDS011;1322;53.256;10.386;2024-03-07T09:02:47;21.73;;;11.77;;
2624;SDS011;1322;53.256;10.386;2024-03-07T09:05:17;19.53;;;11.50;;
2624;SDS011;1322;53.256;10.386;2024-03-07T09:07:44;21.40;;;12.00;;
2624;SDS011;1322;53.256;10.386;2024-03-07T09:10:12;15.83;;;11.30;;
2624;SDS011;1322;53.256;10.386;2024-03-07T09:12:39;24.27;;;11.80;;
2624;SDS011;1322;53.256;10.386;2024-03-07T09:15:05;18.63;;;12.27;;
2624;SDS011;1322;53.256;10.386;2024-03-07T09:17:31;18.40;;;11.60;;
2624;SDS011;1322;53.256;10.386;2024-03-07T09:19:57;22.77;;;12.60;;
2624;SDS011;1322;53.256;10.386;2024-03-07T09:22:23;19.00;;;12.10;;
2624;SDS011;1322;53.256;10.386;2024-03-07T09:24:49;19.83;;;12.40;;
2624;SDS011;1322;53.256;10.386;2024-03-07T09:27:14;18.30;;;11.70;;
2624;SDS011;1322;53.256;10.386;2024-03-07T09:29:40;18.13;;;11.87;;
2624;SDS011;1322;53.256;10.386;2024-03-07T09:32:06;18.17;;;12.73;;
2624;SDS011;1322;53.256;10.386;2024-03-07T09:34:33;18.80;;;13.20;;
2624;SDS011;1322;53.256;10.386;2024-03-07T09:37:00;22.63;;;13.10;;
2624;SDS011;1322;53.256;10.386;2024-03-07T09:39:27;20.43;;;13.40;;
2624;SDS011;1322;53.256;10.386;2024-03-07T09:41:52;21.53;;;14.00;;
2624;SDS011;1322;53.256;10.386;2024-03-07T09:44:20;20.70;;;13.20;;
2624;SDS011;1322;53.256;10.386;2024-03-07T09:46:50;25.47;;;13.20;;
2624;SDS011;1322;53.256;10.386;2024-03-07T09:49:17;26.13;;;14.70;;
2624;SDS011;1322;53.256;10.386;2024-03-07T09:51:44;23.13;;;12.67;;
2624;SDS011;1322;53.256;10.386;2024-03-07T09:54:11;19.57;;;13.30;;
2624;SDS011;1322;53.256;10.386;2024-03-07T09:56:38;22.30;;;14.80;;
2624;SDS011;1322;53.256;10.386;2024-03-07T09:59:05;21.33;;;13.00;;
2624;SDS011;1322;53.256;10.386;2024-03-07T10:01:37;22.40;;;13.33;;
2624;SDS011;1322;53.256;10.386;2024-03-07T10:04:05;20.60;;;12.80;;
2624;SDS011;1322;53.256;10.386;2024-03-07T10:06:39;21.33;;;14.20;;
2624;SDS011;1322;53.256;10.386;2024-03-07T10:09:06;28.93;;;16.40;;
2624;SDS011;1322;53.256;10.386;2024-03-07T10:11:33;19.50;;;13.07;;
2624;SDS011;1322;53.256;10.386;2024-03-07T10:13:59;21.33;;;13.60;;
2624;SDS011;1322;53.256;10.386;2024-03-07T10:16:25;26.10;;;13.93;;
2624;SDS011;1322;53.256;10.386;2024-03-07T10:18:50;18.97;;;13.23;;
2624;SDS011;1322;53.256;10.386;2024-03-07T10:21:19;21.23;;;14.90;;
2624;SDS011;1322;53.256;10.386;2024-03-07T10:23:46;22.50;;;15.40;;
2624;SDS011;1322;53.256;10.386;2024-03-07T10:26:12;18.57;;;12.47;;
2624;SDS011;1322;53.256;10.386;2024-03-07T10:28:38;24.03;;;15.43;;
2624;SDS011;1322;53.256;10.386;2024-03-07T10:31:04;32.83;;;16.23;;
2624;SDS011;1322;53.256;10.386;2024-03-07T10:33:36;22.40;;;12.87;;
2624;SDS011;1322;53.256;10.386;2024-03-07T10:36:05;21.53;;;13.93;;
2624;SDS011;1322;53.256;10.386;2024-03-07T10:38:36;19.00;;;12.77;;
2624;SDS011;1322;53.256;10.386;2024-03-07T10:41:05;24.83;;;14.20;;
2624;SDS011;1322;53.256;10.386;2024-03-07T10:43:34;21.57;;;13.37;;
2624;SDS011;1322;53.256;10.386;2024-03-07T10:46:03;22.80;;;15.87;;
2624;SDS011;1322;53.256;10.386;2024-03-07T10:48:34;23.00;;;15.50;;
2624;SDS011;1322;53.256;10.386;2024-03-07T10:53:53;19.90;;;13.47;;
2624;SDS011;1322;53.256;10.386;2024-03-07T10:56:47;20.27;;;13.07;;
2624;SDS011;1322;53.256;10.386;2024-03-07T10:59:26;24.20;;;13.67;;
2624;SDS011;1322;53.256;10.386;2024-03-07T11:04:44;21.97;;;14.50;;
2624;SDS011;1322;53.256;10.386;2024-03-07T11:07:13;19.87;;;14.57;;
2624;SDS011;1322;53.256;10.386;2024-03-07T11:09:39;22.27;;;14.07;;
2624;SDS011;1322;53.256;10.386;2024-03-07T11:12:07;24.33;;;15.10;;
2624;SDS011;1322;53.256;10.386;2024-03-07T11:14:35;20.73;;;14.70;;
2624;SDS011;1322;53.256;10.386;2024-03-07T11:17:03;20.87;;;12.60;;
2624;SDS011;1322;53.256;10.386;2024-03-07T11:19:33;25.60;;;13.43;;
2624;SDS011;1322;53.256;10.386;2024-03-07T11:22:01;21.00;;;14.47;;
2624;SDS011;1322;53.256;10.386;2024-03-07T11:24:39;21.53;;;13.80;;
2624;SDS011;1322;53.256;10.386;2024-03-07T11:27:05;21.90;;;14.20;;
2624;SDS011;1322;53.256;10.386;2024-03-07T11:32:08;21.40;;;13.37;;
2624;SDS011;1322;53.256;10.386;2024-03-07T11:34:38;26.93;;;15.10;;
2624;SDS011;1322;53.256;10.386;2024-03-07T11:37:08;22.83;;;14.37;;
2624;SDS011;1322;53.256;10.386;2024-03-07T11:39:45;24.93;;;16.07;;
2624;SDS011;1322;53.256;10.386;2024-03-07T11:42:19;23.37;;;14.50;;
2624;SDS011;1322;53.256;10.386;2024-03-07T11:44:52;26.90;;;14.60;;
2624;SDS011;1322;53.256;10.386;2024-03-07T11:47:21;21.40;;;14.50;;
2624;SDS011;1322;53.256;10.386;2024-03-07T11:49:49;21.97;;;15.80;;
2624;SDS011;1322;53.256;10.386;2024-03-07T11:52:17;23.10;;;15.10;;
2624;SDS011;1322;53.256;10.386;2024-03-07T11:54:44;28.10;;;16.23;;
2624;SDS011;1322;53.256;10.386;2024-03-07T11:59:44;23.50;;;15.57;;
2624;SDS011;1322;53.256;10.386;2024-03-07T12:02:15;22.80;;;14.27;;
2624;SDS011;1322;53.256;10.386;2024-03-07T12:04:41;26.30;;;16.03;;
2624;SDS011;1322;53.256;10.386;2024-03-07T12:07:07;26.00;;;14.87;;
2624;SDS011;1322;53.256;10.386;2024-03-07T12:09:35;27.07;;;15.80;;
2624;SDS011;1322;53.256;10.386;2024-03-07T12:12:07;25.63;;;15.83;;
2624;SDS011;1322;53.256;10.386;2024-03-07T12:14:34;23.60;;;15.47;;
2624;SDS011;1322;53.256;10.386;2024-03-07T12:17:01;24.23;;;15.00;;
2624;SDS011;1322;53.256;10.386;2024-03-07T12:19:29;24.17;;;15.13;;
2624;SDS011;1322;53.256;10.386;2024-03-07T12:22:01;26.53;;;16.33;;
2624;SDS011;1322;53.256;10.386;2024-03-07T12:24:28;35.00;;;16.53;;
2624;SDS011;1322;53.256;10.386;2024-03-07T12:27:10;24.00;;;13.93;;
2624;SDS011;1322;53.256;10.386;2024-03-07T12:29:40;26.57;;;15.10;;
2624;SDS011;1322;53.256;10.386;2024-03-07T12:32:07;29.43;;;16.03;;
2624;SDS011;1322;53.256;10.386;2024-03-07T12:34:36;27.10;;;16.30;;
2624;SDS011;1322;53.256;10.386;2024-03-07T12:37:06;23.73;;;15.20;;
2624;SDS011;1322;53.256;10.386;2024-03-07T12:39:33;23.43;;;15.10;;
2624;SDS011;1322;53.256;10.386;2024-03-07T12:42:11;22.03;;;15.23;;
2624;SDS011;1322;53.256;10.386;2024-03-07T12:44:43;24.90;;;15.60;;
2624;SDS011;1322;53.256;10.386;2024-03-07T12:47:13;23.80;;;14.30;;
2624;SDS011;1322;53.256;10.386;2024-03-07T12:49:43;23.43;;;15.80;;
2624;SDS011;1322;53.256;10.386;2024-03-07T12:52:10;23.53;;;15.60;;
2624;SDS011;1322;53.256;10.386;2024-03-07T12:54:38;23.80;;;14.67;;
2624;SDS011;1322;53.256;10.386;2024-03-07T12:59:40;21.93;;;15.93;;
2624;SDS011;1322;53.256;10.386;2024-03-07T13:02:09;21.00;;;14.00;;
2624;SDS011;1322;53.256;10.386;2024-03-07T13:04:36;25.50;;;15.10;;
2624;SDS011;1322;53.256;10.386;2024-03-07T13:07:05;19.90;;;13.60;;
2624;SDS011;1322;53.256;10.386;2024-03-07T13:09:33;22.33;;;15.53;;
2624;SDS011;1322;53.256;10.386;2024-03-07T13:11:59;20.73;;;14.67;;
2624;SDS011;1322;53.256;10.386;2024-03-07T13:14:26;18.87;;;14.60;;
2624;SDS011;1322;53.256;10.386;2024-03-07T13:16:58;25.40;;;15.73;;
2624;SDS011;1322;53.256;10.386;2024-03-07T13:19:29;28.13;;;17.17;;
2624;SDS011;1322;53.256;10.386;2024-03-07T13:21:55;20.90;;;15.17;;
2624;SDS011;1322;53.256;10.386;2024-03-07T13:24:25;19.47;;;13.47;;
2624;SDS011;1322;53.256;10.386;2024-03-07T13:26:52;22.53;;;15.50;;
2624;SDS011;1322;53.256;10.386;2024-03-07T13:29:18;18.20;;;14.23;;
2624;SDS011;1322;53.256;10.386;2024-03-07T13:31:49;19.67;;;13.43;;
2624;SDS011;1322;53.256;10.386;2024-03-07T13:34:17;23.03;;;14.60;;
2624;SDS011;1322;53.256;10.386;2024-03-07T13:36:43;20.70;;;13.97;;
2624;SDS011;1322;53.256;10.386;2024-03-07T13:39:09;21.60;;;13.77;;
2624;SDS011;1322;53.256;10.386;2024-03-07T13:41:42;19.30;;;14.00;;
2624;SDS011;1322;53.256;10.386;2024-03-07T13:44:13;20.73;;;13.03;;
2624;SDS011;1322;53.256;10.386;2024-03-07T13:46:39;18.00;;;13.20;;
2624;SDS011;1322;53.256;10.386;2024-03-07T13:49:05;20.90;;;13.33;;
2624;SDS011;1322;53.256;10.386;2024-03-07T13:51:41;17.50;;;13.37;;
2624;SDS011;1322;53.256;10.386;2024-03-07T13:54:21;20.13;;;12.73;;
2624;SDS011;1322;53.256;10.386;2024-03-07T14:06:25;20.97;;;13.87;;
2624;SDS011;1322;53.256;10.386;2024-03-07T14:31:12;20.27;;;12.57;;
2624;SDS011;1322;53.256;10.386;2024-03-07T14:33:48;21.27;;;13.37;;
2624;SDS011;1322;53.256;10.386;2024-03-07T14:36:38;19.10;;;12.90;;
2624;SDS011;1322;53.256;10.386;2024-03-07T14:39:10;21.33;;;12.63;;
2624;SDS011;1322;53.256;10.386;2024-03-07T14:44:34;19.00;;;12.13;;
2624;SDS011;1322;53.256;10.386;2024-03-07T14:47:07;22.17;;;13.63;;
2624;SDS011;1322;53.256;10.386;2024-03-07T14:49:36;18.40;;;12.00;;
2624;SDS011;1322;53.256;10.386;2024-03-07T14:52:03;20.90;;;13.20;;
2624;SDS011;1322;53.256;10.386;2024-03-07T14:54:35;18.83;;;11.87;;
2624;SDS011;1322;53.256;10.386;2024-03-07T14:57:05;20.33;;;12.30;;
2624;SDS011;1322;53.256;10.386;2024-03-07T14:59:35;19.30;;;11.53;;
2624;SDS011;1322;53.256;10.386;2024-03-07T15:02:01;16.80;;;11.97;;
2624;SDS011;1322;53.256;10.386;2024-03-07T15:04:29;16.83;;;11.67;;
2624;SDS011;1322;53.256;10.386;2024-03-07T15:06:57;18.13;;;11.47;;
2624;SDS011;1322;53.256;10.386;2024-03-07T15:09:24;20.07;;;12.60;;
2624;SDS011;1322;53.256;10.386;2024-03-07T15:11:49;18.80;;;12.03;;
2624;SDS011;1322;53.256;10.386;2024-03-07T15:14:15;15.47;;;12.37;;
2624;SDS011;1322;53.256;10.386;2024-03-07T15:16:40;17.03;;;11.13;;
2624;SDS011;1322;53.256;10.386;2024-03-07T15:19:07;21.27;;;12.87;;
2624;SDS011;1322;53.256;10.386;2024-03-07T15:21:35;24.47;;;13.90;;
2624;SDS011;1322;53.256;10.386;2024-03-07T15:24:02;15.53;;;12.47;;